Tibooburra, Australia
Current Conditions -  °F | °C
As of 4:00 PM on Friday 31 Oct 2014 (Local Time) from YBHI Reporting Station
Clear Clear  
Wind Chill: 95°   Ceiling: Unl
Heat Index: 95°   Visibility: 6mi
Dew Point: 30°   Wind: 16mph
Humidity: 10%   Direction: 310°NW
Pressure: 29.65"   Gusts: NA
Location:  29.43°S, 142.01°E
Report Text: YBHI 310500Z AUTO 31014KT 9999 // NCD 35/M01 Q1004
Loading
Personal Weather Stations






























Interactive Weather Map
Tropical Storm Tracking
New forecast layout! Learn more

10-Day Weather Forecast

Advertisements
Track Severe Weather on mobile